Hauptseite
METAR-TAF:

METAR-TAF

Flughäfen :

Dschidda, Saudi-Arabien

Internationaler König-Abd-al-Aziz-Flughafen

Breite: 21-42N, Länge: 039-11E, Höhe: 15 m

Beobachtung

Neuester Wetterbericht von vor 42 Minuten, um 14:00 UTC
Wind 18 kt aus Nordwest
Temperatur 37°C
Luftfeuchtigkeit 35%
Luftdruck 1001 hPa
Sichtweite: 8000 m
Himmel klar

METAR: OEJN 221400Z 31018KT 8000 SKC 37/19 Q1001 NOSIG

Zeit: 17:42 (14:42 UTC)

Prognose

Neuester Wetterbericht von vor 3 Stunden und 42 Minuten, um 11:00 UTC
Gültige Prognose vom 22 um 12 UTC bis 23 um 18 UTC
Wind 8 kt aus Nordwest, Böen bis zu 18 kt
Sichtweite: 8000 m
Leicht bewölkt in der Höhe von 4000 ft
Übergehend zu
vom 22 um 18 UTC bis 22 um 20 UTC
Wind 8 kt aus Nord

TAF: OEJN 221100Z 2212/2318 32008G18KT 8000 FEW040 BECMG 2218/2220 35008KT

Wetterbeobachtungen und Prognosen von mehr als 4000 Flughäfen (METAR und TAF Bericht).

Die verfügbaren Stationen werden durch gelbe und rote Markierungen auf der Karte dargestellt.

Führen Sie die Maus auf sie, um den Namen der Station zu sehen.

Darauf klicken, um die Beobachtung von Wetterbeobachtungen und Prognosen zu sehen.

Um die Karte zu ändern : klicken Sie auf den grünen Tasten mit einem schwarzen Kreuz Zum Vergrößern, auf den grünen Button mit einem Gedankenstrich zu verkleinern, oder auf die grünen Pfeile für benachbarte Karten.


METAR-TAF: